Castle Gate, Utah
Current Conditions -  °F | °C
As of 1:53 PM on Thursday 20 Nov 2014 (Local Time) from KPUC Reporting Station
Clear Clear  
Wind Chill: 39°   Ceiling: Unl
Heat Index: 42°   Visibility: 10mi
Dew Point: 11°   Wind: 5mph
Humidity: 28%   Direction: 120°ESE
Pressure: 30.07"   Gusts: NA
Location:  39.7304°N, 110.917°W
Report Text: KPUC 202053Z AUTO 12004KT 10SM CLR 06/M12 A3007 RMK AO2 SLP211 T00561117 56018
Loading
Personal Weather Stations






























Interactive Weather Map New forecast layout! Learn more

10-Day Weather Forecast

Advertisements
Track Severe Weather on mobile